sensor_id;sensor_type;location;lat;lon;timestamp;P1;durP1;ratioP1;P2;durP2;ratioP2
11731;SDS011;5922;53.734;10.258;2023-01-28T00:02:13;7.60;;;3.40;;
11731;SDS011;5922;53.734;10.258;2023-01-28T00:04:41;4.07;;;2.40;;
11731;SDS011;5922;53.734;10.258;2023-01-28T00:07:08;6.27;;;2.50;;
11731;SDS011;5922;53.734;10.258;2023-01-28T00:09:35;5.50;;;2.23;;
11731;SDS011;5922;53.734;10.258;2023-01-28T00:12:03;5.73;;;2.50;;
11731;SDS011;5922;53.734;10.258;2023-01-28T00:14:32;3.20;;;2.27;;
11731;SDS011;5922;53.734;10.258;2023-01-28T00:16:59;4.10;;;2.20;;
11731;SDS011;5922;53.734;10.258;2023-01-28T00:19:26;3.37;;;2.20;;
11731;SDS011;5922;53.734;10.258;2023-01-28T00:21:53;4.30;;;2.50;;
11731;SDS011;5922;53.734;10.258;2023-01-28T00:24:21;3.67;;;2.50;;
11731;SDS011;5922;53.734;10.258;2023-01-28T00:26:48;4.87;;;2.40;;
11731;SDS011;5922;53.734;10.258;2023-01-28T00:29:15;4.60;;;2.60;;
11731;SDS011;5922;53.734;10.258;2023-01-28T00:31:44;4.83;;;2.70;;
11731;SDS011;5922;53.734;10.258;2023-01-28T00:34:11;5.97;;;2.67;;
11731;SDS011;5922;53.734;10.258;2023-01-28T00:36:38;5.63;;;2.60;;
11731;SDS011;5922;53.734;10.258;2023-01-28T00:39:06;4.20;;;2.30;;
11731;SDS011;5922;53.734;10.258;2023-01-28T00:41:33;5.20;;;2.93;;
11731;SDS011;5922;53.734;10.258;2023-01-28T00:44:01;9.47;;;3.60;;
11731;SDS011;5922;53.734;10.258;2023-01-28T00:46:28;7.53;;;3.33;;
11731;SDS011;5922;53.734;10.258;2023-01-28T00:48:57;8.40;;;3.87;;
11731;SDS011;5922;53.734;10.258;2023-01-28T00:51:25;8.40;;;3.80;;
11731;SDS011;5922;53.734;10.258;2023-01-28T00:53:53;6.23;;;3.40;;
11731;SDS011;5922;53.734;10.258;2023-01-28T00:56:20;7.20;;;3.27;;
11731;SDS011;5922;53.734;10.258;2023-01-28T00:58:47;7.53;;;3.40;;
11731;SDS011;5922;53.734;10.258;2023-01-28T01:01:15;6.77;;;3.80;;
11731;SDS011;5922;53.734;10.258;2023-01-28T01:03:43;4.57;;;2.87;;
11731;SDS011;5922;53.734;10.258;2023-01-28T01:06:12;4.47;;;2.93;;
11731;SDS011;5922;53.734;10.258;2023-01-28T01:08:39;4.60;;;2.90;;
11731;SDS011;5922;53.734;10.258;2023-01-28T01:11:14;4.07;;;2.77;;
11731;SDS011;5922;53.734;10.258;2023-01-28T01:13:42;5.47;;;2.80;;
11731;SDS011;5922;53.734;10.258;2023-01-28T01:16:10;5.57;;;3.03;;
11731;SDS011;5922;53.734;10.258;2023-01-28T01:18:38;7.27;;;3.93;;
11731;SDS011;5922;53.734;10.258;2023-01-28T01:21:06;6.73;;;3.30;;
11731;SDS011;5922;53.734;10.258;2023-01-28T01:23:35;3.63;;;2.43;;
11731;SDS011;5922;53.734;10.258;2023-01-28T01:26:03;3.73;;;2.70;;
11731;SDS011;5922;53.734;10.258;2023-01-28T01:28:31;4.50;;;2.60;;
11731;SDS011;5922;53.734;10.258;2023-01-28T01:30:58;4.90;;;2.30;;
11731;SDS011;5922;53.734;10.258;2023-01-28T01:33:27;5.33;;;2.70;;
11731;SDS011;5922;53.734;10.258;2023-01-28T01:35:54;5.60;;;2.60;;
11731;SDS011;5922;53.734;10.258;2023-01-28T01:38:22;3.70;;;2.60;;
11731;SDS011;5922;53.734;10.258;2023-01-28T01:40:51;4.97;;;2.63;;
11731;SDS011;5922;53.734;10.258;2023-01-28T01:43:19;3.53;;;2.60;;
11731;SDS011;5922;53.734;10.258;2023-01-28T01:45:47;4.93;;;2.50;;
11731;SDS011;5922;53.734;10.258;2023-01-28T01:48:16;4.20;;;2.30;;
11731;SDS011;5922;53.734;10.258;2023-01-28T01:50:47;2.97;;;2.33;;
11731;SDS011;5922;53.734;10.258;2023-01-28T01:53:16;2.90;;;2.30;;
11731;SDS011;5922;53.734;10.258;2023-01-28T01:55:45;3.83;;;2.57;;
11731;SDS011;5922;53.734;10.258;2023-01-28T01:58:17;5.57;;;2.50;;
11731;SDS011;5922;53.734;10.258;2023-01-28T02:00:45;5.70;;;2.33;;
11731;SDS011;5922;53.734;10.258;2023-01-28T02:03:12;4.57;;;2.47;;
11731;SDS011;5922;53.734;10.258;2023-01-28T02:05:40;4.13;;;2.30;;
11731;SDS011;5922;53.734;10.258;2023-01-28T02:08:07;3.80;;;2.33;;
11731;SDS011;5922;53.734;10.258;2023-01-28T02:10:46;3.83;;;2.33;;
11731;SDS011;5922;53.734;10.258;2023-01-28T02:13:16;4.43;;;2.50;;
11731;SDS011;5922;53.734;10.258;2023-01-28T02:15:45;5.13;;;2.50;;
11731;SDS011;5922;53.734;10.258;2023-01-28T02:18:12;7.47;;;3.13;;
11731;SDS011;5922;53.734;10.258;2023-01-28T02:20:43;6.10;;;3.03;;
11731;SDS011;5922;53.734;10.258;2023-01-28T02:23:20;4.03;;;2.63;;
11731;SDS011;5922;53.734;10.258;2023-01-28T02:26:11;4.87;;;2.63;;
11731;SDS011;5922;53.734;10.258;2023-01-28T02:28:45;5.23;;;2.97;;
11731;SDS011;5922;53.734;10.258;2023-01-28T02:31:15;4.87;;;2.77;;
11731;SDS011;5922;53.734;10.258;2023-01-28T02:33:43;2.83;;;2.47;;
11731;SDS011;5922;53.734;10.258;2023-01-28T02:36:15;3.53;;;2.63;;
11731;SDS011;5922;53.734;10.258;2023-01-28T02:38:45;3.63;;;2.70;;
11731;SDS011;5922;53.734;10.258;2023-01-28T02:41:15;4.47;;;2.70;;
11731;SDS011;5922;53.734;10.258;2023-01-28T02:43:47;4.40;;;2.67;;
11731;SDS011;5922;53.734;10.258;2023-01-28T02:46:16;3.43;;;2.30;;
11731;SDS011;5922;53.734;10.258;2023-01-28T02:49:02;3.40;;;2.40;;
11731;SDS011;5922;53.734;10.258;2023-01-28T02:51:32;2.90;;;2.47;;
11731;SDS011;5922;53.734;10.258;2023-01-28T02:54:07;6.60;;;2.50;;
11731;SDS011;5922;53.734;10.258;2023-01-28T02:56:37;4.87;;;2.43;;
11731;SDS011;5922;53.734;10.258;2023-01-28T02:59:08;2.57;;;2.37;;
11731;SDS011;5922;53.734;10.258;2023-01-28T03:01:51;8.47;;;4.50;;
11731;SDS011;5922;53.734;10.258;2023-01-28T03:04:22;6.57;;;4.00;;
11731;SDS011;5922;53.734;10.258;2023-01-28T03:06:53;6.73;;;3.30;;
11731;SDS011;5922;53.734;10.258;2023-01-28T03:09:21;5.63;;;2.77;;
11731;SDS011;5922;53.734;10.258;2023-01-28T03:11:49;6.47;;;3.60;;
11731;SDS011;5922;53.734;10.258;2023-01-28T03:14:36;11.23;;;5.03;;
11731;SDS011;5922;53.734;10.258;2023-01-28T03:17:23;6.50;;;3.83;;
11731;SDS011;5922;53.734;10.258;2023-01-28T03:20:09;8.33;;;4.13;;
11731;SDS011;5922;53.734;10.258;2023-01-28T03:22:54;5.60;;;2.87;;
11731;SDS011;5922;53.734;10.258;2023-01-28T03:25:40;4.00;;;2.73;;
11731;SDS011;5922;53.734;10.258;2023-01-28T03:28:26;3.87;;;2.50;;
11731;SDS011;5922;53.734;10.258;2023-01-28T03:31:14;5.47;;;2.80;;
11731;SDS011;5922;53.734;10.258;2023-01-28T03:34:00;4.20;;;2.50;;
11731;SDS011;5922;53.734;10.258;2023-01-28T03:36:46;3.40;;;2.60;;
11731;SDS011;5922;53.734;10.258;2023-01-28T03:39:14;3.10;;;2.60;;
11731;SDS011;5922;53.734;10.258;2023-01-28T03:41:42;3.77;;;2.60;;
11731;SDS011;5922;53.734;10.258;2023-01-28T03:44:10;4.60;;;3.00;;
11731;SDS011;5922;53.734;10.258;2023-01-28T03:46:56;3.30;;;2.40;;
11731;SDS011;5922;53.734;10.258;2023-01-28T03:49:23;4.37;;;2.67;;
11731;SDS011;5922;53.734;10.258;2023-01-28T03:51:50;4.50;;;2.40;;
11731;SDS011;5922;53.734;10.258;2023-01-28T03:54:17;4.63;;;2.50;;
11731;SDS011;5922;53.734;10.258;2023-01-28T03:56:44;3.03;;;2.20;;
11731;SDS011;5922;53.734;10.258;2023-01-28T03:59:12;4.00;;;2.30;;
11731;SDS011;5922;53.734;10.258;2023-01-28T04:01:40;3.40;;;2.50;;
11731;SDS011;5922;53.734;10.258;2023-01-28T04:04:09;4.20;;;2.30;;
11731;SDS011;5922;53.734;10.258;2023-01-28T04:06:48;3.23;;;2.87;;
11731;SDS011;5922;53.734;10.258;2023-01-28T04:09:15;4.93;;;2.30;;
11731;SDS011;5922;53.734;10.258;2023-01-28T04:11:42;4.63;;;2.70;;
11731;SDS011;5922;53.734;10.258;2023-01-28T04:14:10;4.80;;;2.60;;
11731;SDS011;5922;53.734;10.258;2023-01-28T04:16:37;3.00;;;2.50;;
11731;SDS011;5922;53.734;10.258;2023-01-28T04:19:04;3.03;;;2.30;;
11731;SDS011;5922;53.734;10.258;2023-01-28T04:21:33;4.33;;;2.47;;
11731;SDS011;5922;53.734;10.258;2023-01-28T04:24:00;2.60;;;2.30;;
11731;SDS011;5922;53.734;10.258;2023-01-28T04:26:28;5.60;;;2.60;;
11731;SDS011;5922;53.734;10.258;2023-01-28T04:28:55;3.10;;;2.43;;
11731;SDS011;5922;53.734;10.258;2023-01-28T04:31:22;3.57;;;2.40;;
11731;SDS011;5922;53.734;10.258;2023-01-28T04:33:49;5.03;;;2.70;;
11731;SDS011;5922;53.734;10.258;2023-01-28T04:36:17;3.57;;;2.53;;
11731;SDS011;5922;53.734;10.258;2023-01-28T04:38:45;4.03;;;2.27;;
11731;SDS011;5922;53.734;10.258;2023-01-28T04:41:12;5.20;;;2.87;;
11731;SDS011;5922;53.734;10.258;2023-01-28T04:43:40;3.83;;;2.40;;
11731;SDS011;5922;53.734;10.258;2023-01-28T04:46:07;3.10;;;2.20;;
11731;SDS011;5922;53.734;10.258;2023-01-28T04:48:34;3.30;;;2.30;;
11731;SDS011;5922;53.734;10.258;2023-01-28T04:51:02;3.13;;;2.60;;
11731;SDS011;5922;53.734;10.258;2023-01-28T04:53:29;2.43;;;2.23;;
11731;SDS011;5922;53.734;10.258;2023-01-28T04:55:58;7.17;;;2.50;;
11731;SDS011;5922;53.734;10.258;2023-01-28T04:58:25;4.23;;;2.50;;
11731;SDS011;5922;53.734;10.258;2023-01-28T05:00:53;5.20;;;2.30;;
11731;SDS011;5922;53.734;10.258;2023-01-28T05:03:21;4.50;;;2.47;;
11731;SDS011;5922;53.734;10.258;2023-01-28T05:05:48;4.00;;;2.60;;
11731;SDS011;5922;53.734;10.258;2023-01-28T05:08:16;3.10;;;2.50;;
11731;SDS011;5922;53.734;10.258;2023-01-28T05:10:43;4.07;;;2.80;;
11731;SDS011;5922;53.734;10.258;2023-01-28T05:13:12;3.53;;;2.80;;
11731;SDS011;5922;53.734;10.258;2023-01-28T05:15:39;3.07;;;2.50;;
11731;SDS011;5922;53.734;10.258;2023-01-28T05:18:06;3.43;;;2.57;;
11731;SDS011;5922;53.734;10.258;2023-01-28T05:20:34;4.27;;;2.30;;
11731;SDS011;5922;53.734;10.258;2023-01-28T05:23:01;3.77;;;2.70;;
11731;SDS011;5922;53.734;10.258;2023-01-28T05:25:28;4.43;;;2.70;;
11731;SDS011;5922;53.734;10.258;2023-01-28T05:27:55;4.60;;;2.70;;
11731;SDS011;5922;53.734;10.258;2023-01-28T05:30:24;3.13;;;2.47;;
11731;SDS011;5922;53.734;10.258;2023-01-28T05:32:53;4.17;;;2.47;;
11731;SDS011;5922;53.734;10.258;2023-01-28T05:35:20;4.40;;;2.57;;
11731;SDS011;5922;53.734;10.258;2023-01-28T05:37:48;2.40;;;2.20;;
11731;SDS011;5922;53.734;10.258;2023-01-28T05:40:15;3.30;;;2.70;;
11731;SDS011;5922;53.734;10.258;2023-01-28T05:42:42;2.97;;;2.67;;
11731;SDS011;5922;53.734;10.258;2023-01-28T05:45:10;3.47;;;2.90;;
11731;SDS011;5922;53.734;10.258;2023-01-28T05:47:38;4.47;;;3.10;;
11731;SDS011;5922;53.734;10.258;2023-01-28T05:50:06;4.27;;;3.20;;
11731;SDS011;5922;53.734;10.258;2023-01-28T05:52:34;5.07;;;2.90;;
11731;SDS011;5922;53.734;10.258;2023-01-28T05:55:01;4.27;;;3.00;;
11731;SDS011;5922;53.734;10.258;2023-01-28T05:57:28;3.37;;;2.60;;
11731;SDS011;5922;53.734;10.258;2023-01-28T05:59:55;4.13;;;3.10;;
11731;SDS011;5922;53.734;10.258;2023-01-28T06:02:23;3.53;;;3.20;;
11731;SDS011;5922;53.734;10.258;2023-01-28T06:04:51;4.57;;;2.60;;
11731;SDS011;5922;53.734;10.258;2023-01-28T06:07:18;3.50;;;2.67;;
11731;SDS011;5922;53.734;10.258;2023-01-28T06:09:46;3.97;;;2.90;;
11731;SDS011;5922;53.734;10.258;2023-01-28T06:12:13;3.43;;;2.77;;
11731;SDS011;5922;53.734;10.258;2023-01-28T06:14:40;3.60;;;2.80;;
11731;SDS011;5922;53.734;10.258;2023-01-28T06:17:08;3.83;;;2.80;;
11731;SDS011;5922;53.734;10.258;2023-01-28T06:19:35;6.40;;;3.00;;
11731;SDS011;5922;53.734;10.258;2023-01-28T06:22:04;2.80;;;2.50;;
11731;SDS011;5922;53.734;10.258;2023-01-28T06:24:31;4.10;;;3.03;;
11731;SDS011;5922;53.734;10.258;2023-01-28T06:26:58;3.00;;;2.70;;
11731;SDS011;5922;53.734;10.258;2023-01-28T06:29:25;3.50;;;2.93;;
11731;SDS011;5922;53.734;10.258;2023-01-28T06:31:53;3.93;;;3.17;;
11731;SDS011;5922;53.734;10.258;2023-01-28T06:34:20;4.43;;;2.87;;
11731;SDS011;5922;53.734;10.258;2023-01-28T06:36:47;4.40;;;3.00;;
11731;SDS011;5922;53.734;10.258;2023-01-28T06:39:18;3.80;;;2.70;;
11731;SDS011;5922;53.734;10.258;2023-01-28T06:41:46;3.80;;;3.13;;
11731;SDS011;5922;53.734;10.258;2023-01-28T06:44:14;3.87;;;3.00;;
11731;SDS011;5922;53.734;10.258;2023-01-28T06:46:41;4.27;;;3.17;;
11731;SDS011;5922;53.734;10.258;2023-01-28T06:49:08;5.27;;;3.10;;
11731;SDS011;5922;53.734;10.258;2023-01-28T06:51:35;8.07;;;3.03;;
11731;SDS011;5922;53.734;10.258;2023-01-28T06:54:03;3.77;;;2.80;;
11731;SDS011;5922;53.734;10.258;2023-01-28T06:59:00;6.77;;;3.30;;
11731;SDS011;5922;53.734;10.258;2023-01-28T07:01:27;4.10;;;3.07;;
11731;SDS011;5922;53.734;10.258;2023-01-28T07:03:54;4.67;;;3.93;;
11731;SDS011;5922;53.734;10.258;2023-01-28T07:06:22;7.43;;;4.33;;
11731;SDS011;5922;53.734;10.258;2023-01-28T07:08:49;4.70;;;3.77;;
11731;SDS011;5922;53.734;10.258;2023-01-28T07:11:16;6.53;;;3.80;;
11731;SDS011;5922;53.734;10.258;2023-01-28T07:13:43;5.73;;;3.70;;
11731;SDS011;5922;53.734;10.258;2023-01-28T07:16:13;6.47;;;3.97;;
11731;SDS011;5922;53.734;10.258;2023-01-28T07:18:40;7.83;;;5.13;;
11731;SDS011;5922;53.734;10.258;2023-01-28T07:21:07;9.77;;;6.77;;
11731;SDS011;5922;53.734;10.258;2023-01-28T07:23:34;6.37;;;5.47;;
11731;SDS011;5922;53.734;10.258;2023-01-28T07:26:03;10.00;;;6.87;;
11731;SDS011;5922;53.734;10.258;2023-01-28T07:28:31;10.43;;;7.30;;
11731;SDS011;5922;53.734;10.258;2023-01-28T07:30:58;7.73;;;6.10;;
11731;SDS011;5922;53.734;10.258;2023-01-28T07:33:26;8.10;;;4.83;;
11731;SDS011;5922;53.734;10.258;2023-01-28T07:35:54;6.73;;;4.50;;
11731;SDS011;5922;53.734;10.258;2023-01-28T07:38:21;6.17;;;3.90;;
11731;SDS011;5922;53.734;10.258;2023-01-28T07:40:48;8.23;;;3.47;;
11731;SDS011;5922;53.734;10.258;2023-01-28T07:43:15;5.23;;;3.40;;
11731;SDS011;5922;53.734;10.258;2023-01-28T07:45:43;5.50;;;3.67;;
11731;SDS011;5922;53.734;10.258;2023-01-28T07:48:11;4.17;;;3.30;;
11731;SDS011;5922;53.734;10.258;2023-01-28T07:50:40;5.87;;;3.67;;
11731;SDS011;5922;53.734;10.258;2023-01-28T07:53:08;4.43;;;3.47;;
11731;SDS011;5922;53.734;10.258;2023-01-28T07:55:36;7.70;;;3.70;;
11731;SDS011;5922;53.734;10.258;2023-01-28T07:58:04;6.83;;;3.80;;
11731;SDS011;5922;53.734;10.258;2023-01-28T08:00:32;6.00;;;3.87;;
11731;SDS011;5922;53.734;10.258;2023-01-28T08:03:00;7.67;;;4.50;;
11731;SDS011;5922;53.734;10.258;2023-01-28T08:05:29;7.03;;;4.27;;
11731;SDS011;5922;53.734;10.258;2023-01-28T08:08:00;8.50;;;4.67;;
11731;SDS011;5922;53.734;10.258;2023-01-28T08:10:27;7.73;;;4.43;;
11731;SDS011;5922;53.734;10.258;2023-01-28T08:12:55;6.90;;;4.50;;
11731;SDS011;5922;53.734;10.258;2023-01-28T08:15:23;6.70;;;4.70;;
11731;SDS011;5922;53.734;10.258;2023-01-28T08:17:52;5.17;;;4.30;;
11731;SDS011;5922;53.734;10.258;2023-01-28T08:20:19;6.30;;;4.40;;
11731;SDS011;5922;53.734;10.258;2023-01-28T08:22:47;6.63;;;4.63;;
11731;SDS011;5922;53.734;10.258;2023-01-28T08:25:16;5.27;;;4.77;;
11731;SDS011;5922;53.734;10.258;2023-01-28T08:27:43;5.10;;;4.60;;
11731;SDS011;5922;53.734;10.258;2023-01-28T08:30:11;8.77;;;5.17;;
11731;SDS011;5922;53.734;10.258;2023-01-28T08:32:38;7.27;;;5.17;;
11731;SDS011;5922;53.734;10.258;2023-01-28T08:35:06;7.60;;;4.93;;
11731;SDS011;5922;53.734;10.258;2023-01-28T08:37:33;9.33;;;5.50;;
11731;SDS011;5922;53.734;10.258;2023-01-28T08:40:00;7.87;;;5.37;;
11731;SDS011;5922;53.734;10.258;2023-01-28T08:42:29;6.20;;;5.60;;
11731;SDS011;5922;53.734;10.258;2023-01-28T08:44:57;7.53;;;6.03;;
11731;SDS011;5922;53.734;10.258;2023-01-28T08:47:24;8.60;;;5.50;;
11731;SDS011;5922;53.734;10.258;2023-01-28T08:49:51;6.53;;;5.60;;
11731;SDS011;5922;53.734;10.258;2023-01-28T08:52:18;7.83;;;5.87;;
11731;SDS011;5922;53.734;10.258;2023-01-28T08:54:45;9.20;;;6.80;;
11731;SDS011;5922;53.734;10.258;2023-01-28T08:57:13;8.13;;;6.10;;
11731;SDS011;5922;53.734;10.258;2023-01-28T08:59:41;7.43;;;6.30;;
11731;SDS011;5922;53.734;10.258;2023-01-28T09:02:11;8.00;;;6.40;;
11731;SDS011;5922;53.734;10.258;2023-01-28T09:04:39;8.73;;;6.97;;
11731;SDS011;5922;53.734;10.258;2023-01-28T09:07:07;6.97;;;6.27;;
11731;SDS011;5922;53.734;10.258;2023-01-28T09:09:34;10.83;;;6.83;;
11731;SDS011;5922;53.734;10.258;2023-01-28T09:12:02;10.53;;;7.87;;
11731;SDS011;5922;53.734;10.258;2023-01-28T09:14:30;10.10;;;7.43;;
11731;SDS011;5922;53.734;10.258;2023-01-28T09:16:58;10.53;;;8.30;;
11731;SDS011;5922;53.734;10.258;2023-01-28T09:19:25;11.90;;;9.10;;
11731;SDS011;5922;53.734;10.258;2023-01-28T09:21:53;12.10;;;8.47;;
11731;SDS011;5922;53.734;10.258;2023-01-28T09:24:21;9.77;;;7.83;;
11731;SDS011;5922;53.734;10.258;2023-01-28T09:26:48;10.07;;;7.67;;
11731;SDS011;5922;53.734;10.258;2023-01-28T09:29:15;13.07;;;8.03;;
11731;SDS011;5922;53.734;10.258;2023-01-28T09:31:42;10.10;;;7.90;;
11731;SDS011;5922;53.734;10.258;2023-01-28T09:34:11;10.33;;;8.37;;
11731;SDS011;5922;53.734;10.258;2023-01-28T09:36:38;10.53;;;7.30;;
11731;SDS011;5922;53.734;10.258;2023-01-28T09:39:06;11.40;;;7.43;;
11731;SDS011;5922;53.734;10.258;2023-01-28T09:41:36;13.17;;;8.17;;
11731;SDS011;5922;53.734;10.258;2023-01-28T09:44:16;9.80;;;7.97;;
11731;SDS011;5922;53.734;10.258;2023-01-28T09:46:46;9.93;;;7.20;;
11731;SDS011;5922;53.734;10.258;2023-01-28T09:49:18;7.60;;;6.83;;
11731;SDS011;5922;53.734;10.258;2023-01-28T09:51:46;8.23;;;6.83;;
11731;SDS011;5922;53.734;10.258;2023-01-28T09:54:19;8.40;;;6.40;;
11731;SDS011;5922;53.734;10.258;2023-01-28T09:56:50;8.73;;;5.97;;
11731;SDS011;5922;53.734;10.258;2023-01-28T09:59:20;8.10;;;6.23;;
11731;SDS011;5922;53.734;10.258;2023-01-28T10:01:50;8.57;;;6.50;;
11731;SDS011;5922;53.734;10.258;2023-01-28T10:04:24;8.33;;;6.57;;
11731;SDS011;5922;53.734;10.258;2023-01-28T10:06:56;10.80;;;6.97;;
11731;SDS011;5922;53.734;10.258;2023-01-28T10:09:30;9.33;;;6.50;;
11731;SDS011;5922;53.734;10.258;2023-01-28T10:12:03;6.67;;;5.83;;
11731;SDS011;5922;53.734;10.258;2023-01-28T10:14:35;8.83;;;6.93;;
11731;SDS011;5922;53.734;10.258;2023-01-28T10:17:04;8.73;;;6.13;;
11731;SDS011;5922;53.734;10.258;2023-01-28T10:19:36;8.57;;;5.67;;
11731;SDS011;5922;53.734;10.258;2023-01-28T10:22:06;6.47;;;5.70;;
11731;SDS011;5922;53.734;10.258;2023-01-28T10:24:35;6.33;;;5.47;;
11731;SDS011;5922;53.734;10.258;2023-01-28T10:27:07;6.93;;;5.67;;
11731;SDS011;5922;53.734;10.258;2023-01-28T10:29:35;7.07;;;5.23;;
11731;SDS011;5922;53.734;10.258;2023-01-28T10:32:12;11.27;;;5.40;;
11731;SDS011;5922;53.734;10.258;2023-01-28T10:34:43;6.00;;;5.40;;
11731;SDS011;5922;53.734;10.258;2023-01-28T10:37:11;10.00;;;6.90;;
11731;SDS011;5922;53.734;10.258;2023-01-28T10:39:39;9.40;;;7.00;;
11731;SDS011;5922;53.734;10.258;2023-01-28T10:42:12;10.63;;;6.40;;
11731;SDS011;5922;53.734;10.258;2023-01-28T10:44:42;9.53;;;6.80;;
11731;SDS011;5922;53.734;10.258;2023-01-28T10:47:12;6.50;;;5.60;;
11731;SDS011;5922;53.734;10.258;2023-01-28T10:49:41;6.27;;;5.60;;
11731;SDS011;5922;53.734;10.258;2023-01-28T10:52:11;9.50;;;5.80;;
11731;SDS011;5922;53.734;10.258;2023-01-28T10:54:39;6.97;;;6.03;;
11731;SDS011;5922;53.734;10.258;2023-01-28T10:57:09;8.93;;;6.27;;
11731;SDS011;5922;53.734;10.258;2023-01-28T10:59:37;9.07;;;6.73;;
11731;SDS011;5922;53.734;10.258;2023-01-28T11:02:19;9.03;;;6.73;;
11731;SDS011;5922;53.734;10.258;2023-01-28T11:04:47;7.80;;;6.43;;
11731;SDS011;5922;53.734;10.258;2023-01-28T11:07:17;10.00;;;7.13;;
11731;SDS011;5922;53.734;10.258;2023-01-28T11:09:45;8.27;;;6.67;;
11731;SDS011;5922;53.734;10.258;2023-01-28T11:12:13;9.17;;;6.57;;
11731;SDS011;5922;53.734;10.258;2023-01-28T11:14:48;8.03;;;5.97;;
11731;SDS011;5922;53.734;10.258;2023-01-28T11:17:16;8.90;;;6.33;;
11731;SDS011;5922;53.734;10.258;2023-01-28T11:19:44;9.53;;;6.73;;
11731;SDS011;5922;53.734;10.258;2023-01-28T11:22:18;8.47;;;6.60;;
11731;SDS011;5922;53.734;10.258;2023-01-28T11:24:47;7.67;;;6.30;;
11731;SDS011;5922;53.734;10.258;2023-01-28T11:27:14;7.27;;;5.43;;
11731;SDS011;5922;53.734;10.258;2023-01-28T11:29:42;8.20;;;6.23;;
11731;SDS011;5922;53.734;10.258;2023-01-28T11:32:17;8.10;;;6.50;;
11731;SDS011;5922;53.734;10.258;2023-01-28T11:34:48;8.17;;;6.10;;
11731;SDS011;5922;53.734;10.258;2023-01-28T11:37:15;10.47;;;6.13;;
11731;SDS011;5922;53.734;10.258;2023-01-28T11:39:44;6.47;;;5.60;;
11731;SDS011;5922;53.734;10.258;2023-01-28T11:42:12;9.87;;;6.70;;
11731;SDS011;5922;53.734;10.258;2023-01-28T11:44:41;6.50;;;5.80;;
11731;SDS011;5922;53.734;10.258;2023-01-28T11:47:12;7.20;;;6.50;;
11731;SDS011;5922;53.734;10.258;2023-01-28T11:49:46;8.47;;;5.60;;
11731;SDS011;5922;53.734;10.258;2023-01-28T11:52:17;10.43;;;6.17;;
11731;SDS011;5922;53.734;10.258;2023-01-28T11:54:52;7.20;;;5.67;;
11731;SDS011;5922;53.734;10.258;2023-01-28T11:57:23;8.30;;;6.37;;
11731;SDS011;5922;53.734;10.258;2023-01-28T12:02:41;8.47;;;6.87;;
11731;SDS011;5922;53.734;10.258;2023-01-28T12:05:15;7.67;;;6.57;;
11731;SDS011;5922;53.734;10.258;2023-01-28T12:07:46;7.17;;;6.07;;
11731;SDS011;5922;53.734;10.258;2023-01-28T12:10:18;8.73;;;6.43;;
11731;SDS011;5922;53.734;10.258;2023-01-28T12:12:54;7.50;;;6.67;;
11731;SDS011;5922;53.734;10.258;2023-01-28T12:15:45;8.40;;;6.60;;
11731;SDS011;5922;53.734;10.258;2023-01-28T12:18:17;8.93;;;7.63;;
11731;SDS011;5922;53.734;10.258;2023-01-28T12:20:49;6.93;;;6.23;;
11731;SDS011;5922;53.734;10.258;2023-01-28T12:23:23;10.07;;;6.40;;
11731;SDS011;5922;53.734;10.258;2023-01-28T12:26:03;7.23;;;6.37;;
11731;SDS011;5922;53.734;10.258;2023-01-28T12:28:37;7.47;;;6.50;;
11731;SDS011;5922;53.734;10.258;2023-01-28T12:31:25;8.23;;;6.80;;
11731;SDS011;5922;53.734;10.258;2023-01-28T12:34:08;9.50;;;6.67;;
11731;SDS011;5922;53.734;10.258;2023-01-28T12:36:42;10.63;;;6.70;;
11731;SDS011;5922;53.734;10.258;2023-01-28T12:39:15;7.00;;;6.17;;
11731;SDS011;5922;53.734;10.258;2023-01-28T12:41:46;14.43;;;6.30;;
11731;SDS011;5922;53.734;10.258;2023-01-28T12:44:16;9.07;;;6.40;;
11731;SDS011;5922;53.734;10.258;2023-01-28T12:46:47;9.93;;;6.70;;
11731;SDS011;5922;53.734;10.258;2023-01-28T12:49:16;7.00;;;6.30;;
11731;SDS011;5922;53.734;10.258;2023-01-28T12:51:47;9.23;;;7.10;;
11731;SDS011;5922;53.734;10.258;2023-01-28T12:54:16;8.87;;;6.83;;
11731;SDS011;5922;53.734;10.258;2023-01-28T12:56:48;11.63;;;7.07;;
11731;SDS011;5922;53.734;10.258;2023-01-28T12:59:17;8.60;;;7.03;;
11731;SDS011;5922;53.734;10.258;2023-01-28T13:01:47;11.30;;;7.00;;
11731;SDS011;5922;53.734;10.258;2023-01-28T13:04:17;11.43;;;7.97;;
11731;SDS011;5922;53.734;10.258;2023-01-28T13:06:48;9.63;;;7.63;;
11731;SDS011;5922;53.734;10.258;2023-01-28T13:09:17;11.30;;;9.00;;
11731;SDS011;5922;53.734;10.258;2023-01-28T13:11:47;11.37;;;8.67;;
11731;SDS011;5922;53.734;10.258;2023-01-28T13:14:15;11.23;;;8.00;;
11731;SDS011;5922;53.734;10.258;2023-01-28T13:16:43;14.80;;;8.47;;
11731;SDS011;5922;53.734;10.258;2023-01-28T13:19:20;9.80;;;8.60;;
11731;SDS011;5922;53.734;10.258;2023-01-28T13:21:48;9.70;;;7.67;;
11731;SDS011;5922;53.734;10.258;2023-01-28T13:24:19;11.13;;;8.87;;
11731;SDS011;5922;53.734;10.258;2023-01-28T13:26:49;8.90;;;8.00;;
11731;SDS011;5922;53.734;10.258;2023-01-28T13:29:26;11.67;;;8.53;;
11731;SDS011;5922;53.734;10.258;2023-01-28T13:31:55;9.03;;;7.97;;
11731;SDS011;5922;53.734;10.258;2023-01-28T13:34:27;11.90;;;8.60;;
11731;SDS011;5922;53.734;10.258;2023-01-28T13:36:57;11.13;;;8.73;;
11731;SDS011;5922;53.734;10.258;2023-01-28T13:39:25;10.87;;;9.43;;
11731;SDS011;5922;53.734;10.258;2023-01-28T13:41:54;12.47;;;10.43;;
11731;SDS011;5922;53.734;10.258;2023-01-28T13:44:25;14.10;;;11.17;;
11731;SDS011;5922;53.734;10.258;2023-01-28T13:46:54;12.13;;;9.30;;
11731;SDS011;5922;53.734;10.258;2023-01-28T13:49:22;13.17;;;8.77;;
11731;SDS011;5922;53.734;10.258;2023-01-28T13:51:55;13.10;;;9.37;;
11731;SDS011;5922;53.734;10.258;2023-01-28T13:54:24;12.90;;;9.23;;
11731;SDS011;5922;53.734;10.258;2023-01-28T13:56:58;11.47;;;8.77;;
11731;SDS011;5922;53.734;10.258;2023-01-28T13:59:33;12.10;;;9.53;;
11731;SDS011;5922;53.734;10.258;2023-01-28T14:05:02;16.53;;;12.00;;
11731;SDS011;5922;53.734;10.258;2023-01-28T14:07:43;11.60;;;9.27;;
11731;SDS011;5922;53.734;10.258;2023-01-28T14:10:18;11.03;;;9.90;;
11731;SDS011;5922;53.734;10.258;2023-01-28T14:12:55;17.03;;;9.10;;
11731;SDS011;5922;53.734;10.258;2023-01-28T14:15:47;13.60;;;10.13;;
11731;SDS011;5922;53.734;10.258;2023-01-28T14:18:20;11.70;;;9.23;;
11731;SDS011;5922;53.734;10.258;2023-01-28T14:20:50;9.87;;;8.77;;
11731;SDS011;5922;53.734;10.258;2023-01-28T14:23:18;9.90;;;8.27;;
11731;SDS011;5922;53.734;10.258;2023-01-28T14:25:50;12.23;;;9.17;;
11731;SDS011;5922;53.734;10.258;2023-01-28T14:28:27;12.67;;;9.73;;
11731;SDS011;5922;53.734;10.258;2023-01-28T14:31:00;15.77;;;10.40;;
11731;SDS011;5922;53.734;10.258;2023-01-28T14:33:30;13.13;;;9.77;;
11731;SDS011;5922;53.734;10.258;2023-01-28T14:35:57;11.73;;;9.47;;
11731;SDS011;5922;53.734;10.258;2023-01-28T14:38:24;14.57;;;10.50;;
11731;SDS011;5922;53.734;10.258;2023-01-28T14:40:52;12.73;;;9.63;;
11731;SDS011;5922;53.734;10.258;2023-01-28T14:43:20;12.37;;;9.50;;
11731;SDS011;5922;53.734;10.258;2023-01-28T14:45:55;13.00;;;10.37;;
11731;SDS011;5922;53.734;10.258;2023-01-28T14:48:24;13.37;;;10.40;;
11731;SDS011;5922;53.734;10.258;2023-01-28T14:51:04;13.60;;;10.17;;
11731;SDS011;5922;53.734;10.258;2023-01-28T14:53:46;11.30;;;9.97;;
11731;SDS011;5922;53.734;10.258;2023-01-28T14:56:17;13.47;;;10.40;;
11731;SDS011;5922;53.734;10.258;2023-01-28T14:58:46;13.40;;;9.77;;
11731;SDS011;5922;53.734;10.258;2023-01-28T15:01:20;11.20;;;9.80;;
11731;SDS011;5922;53.734;10.258;2023-01-28T15:03:47;13.97;;;10.33;;
11731;SDS011;5922;53.734;10.258;2023-01-28T15:06:16;11.67;;;10.33;;
11731;SDS011;5922;53.734;10.258;2023-01-28T15:08:44;13.57;;;10.57;;
11731;SDS011;5922;53.734;10.258;2023-01-28T15:11:12;15.40;;;11.40;;